Página principal
METAR-TAF:

METAR-TAF

Aeroportos :

Terceira, Açores, Portugal

Base Aérea das Lajes

latitude: 38-46N, longitude: 027-06W, altura: 52 m

Observação actual do tempo

O boletim foi feito há 28 minutos, às 10:00 UTC
Temperatura 22°C
Humidade 83%
Pressão 1031 hPa
Visibilidade 10 km ou mais
Poucas nuvensa uma altura de 2300 ft
Nuvens fragmentadasa uma altura de 3500 ft

METAR: LPLA 201000Z /////KT 9999 FEW023 BKN035 22/19 Q1031

Hora: 10:28 (10:28 UTC)

Previsão

O boletim foi feito há 5 horas e 28 minutos, às 05:00 UTC
Previsão válida de 20 às 06 UTC a 21 às 06 UTC
Vento 10 kt de nor-nordeste
Visibilidade 10 km ou mais
Nuvens dispersasa uma altura de 2500 ft

TAF: LPLA 200500Z 2006/2106 03010KT 9999 SCT025

Observações e previsões do tempo de mais de 4000 aeroportos (mensagens METAR e TAF).

As estações disponíveis são os pontos amarelos e vermelhos sobre o mapa.

Mova o rato sobre o mapa para ver o nome da estação.

Depois clique no ponto para visualizar as observações e previsões meteorológicas.

Para alterar o mapa : clique nos botões verdes com uma cruz preta para aumentar o zoom; no botão verde com uma pitada de zoom; ou nas setas verdes para mapas adjacentes.


METAR-TAF: